Time;durP1;ratioP1;P1;durP2;ratioP2;P2;SDS_P1;SDS_P2;PMS_P1;PMS_P2;Temp;Humidity;BMP_temperature;BMP_pressure;BME280_temperature;BME280_humidity;BME280_pressure;Samples;Min_cycle;Max_cycle;Signal;HPM_P1;HPM_P2
2022/05/20 00:00:28;;;;;;;36.72;33.33;;;21.30;85.40;;;;;;5092594;28;20400;-66
2022/05/20 00:02:54;;;;;;;36.33;32.72;;;21.30;85.50;;;;;;5074683;28;20032;-65
2022/05/20 00:05:19;;;;;;;35.42;32.15;;;21.20;85.40;;;;;;5092617;28;20032;-65
2022/05/20 00:07:45;;;;;;;33.58;30.48;;;21.20;85.50;;;;;;5092424;28;20039;-66
2022/05/20 00:10:12;;;;;;;33.08;30.02;;;21.20;85.50;;;;;;5092290;28;20042;-66
2022/05/20 00:12:38;;;;;;;34.28;30.88;;;21.20;85.50;;;;;;5092581;28;20085;-66
2022/05/20 00:15:06;;;;;;;35.80;32.38;;;21.20;85.50;;;;;;5092408;28;20036;-65
2022/05/20 00:17:31;;;;;;;36.47;32.97;;;21.20;85.70;;;;;;5092815;28;20473;-65
2022/05/20 00:19:57;;;;;;;37.88;34.25;;;21.20;85.70;;;;;;5092525;28;20084;-66
2022/05/20 00:22:23;;;;;;;40.05;36.30;;;21.20;86.00;;;;;;5092218;28;20125;-65
2022/05/20 00:27:32;;;;;;;38.75;34.95;;;21.10;86.00;;;;;;5092309;28;20389;-66
2022/05/20 00:29:58;;;;;;;37.80;34.40;;;21.20;86.10;;;;;;5092206;28;20044;-66
2022/05/20 00:32:24;;;;;;;39.38;35.88;;;21.10;86.20;;;;;;5092326;28;20039;-71
2022/05/20 00:34:49;;;;;;;38.53;35.03;;;21.10;86.20;;;;;;5092173;28;20072;-71
2022/05/20 00:37:15;;;;;;;37.17;33.97;;;21.10;86.40;;;;;;5091937;28;20020;-70
2022/05/20 00:39:40;;;;;;;37.50;34.22;;;21.10;86.30;;;;;;5092047;28;20020;-71
2022/05/20 00:42:13;;;;;;;36.47;33.10;;;21.10;86.40;;;;;;5092214;28;20492;-72
2022/05/20 00:44:39;;;;;;;39.75;35.80;;;21.10;86.50;;;;;;5092146;28;20043;-71
2022/05/20 00:47:04;;;;;;;40.95;36.85;;;21.10;86.50;;;;;;5092021;28;20028;-71
2022/05/20 00:49:31;;;;;;;38.90;35.30;;;21.10;86.60;;;;;;5092008;28;20465;-70
2022/05/20 00:51:58;;;;;;;38.97;35.38;;;21.00;86.90;;;;;;5091753;28;20031;-70
2022/05/20 00:54:33;;;;;;;39.67;35.88;;;21.00;86.90;;;;;;5092144;28;20462;-71
2022/05/20 00:57:17;;;;;;;40.03;36.00;;;21.00;87.10;;;;;;5091953;28;20497;-70
2022/05/20 00:59:48;;;;;;;38.17;34.53;;;21.00;87.10;;;;;;5091782;28;20368;-70
2022/05/20 01:02:17;;;;;;;36.45;33.10;;;20.90;87.10;;;;;;5092072;28;20028;-64
2022/05/20 01:04:43;;;;;;;36.85;33.10;;;20.90;87.20;;;;;;5092037;28;20461;-64
2022/05/20 01:07:10;;;;;;;34.13;30.83;;;20.90;87.20;;;;;;5091541;28;20032;-64
2022/05/20 01:09:37;;;;;;;33.47;30.08;;;20.90;87.40;;;;;;5073889;28;20504;-66
2022/05/20 01:12:03;;;;;;;33.47;30.42;;;20.90;87.30;;;;;;5091764;28;20032;-64
2022/05/20 01:14:29;;;;;;;34.03;30.58;;;20.80;88.00;;;;;;5084850;28;20059;-64
2022/05/20 01:16:55;;;;;;;33.38;30.23;;;20.90;87.40;;;;;;5090622;28;20040;-65
2022/05/20 01:19:40;;;;;;;37.47;33.20;;;20.80;87.40;;;;;;5090192;28;20032;-64
2022/05/20 01:22:09;;;;;;;34.78;31.40;;;20.80;87.70;;;;;;5091649;28;20401;-69
2022/05/20 01:24:35;;;;;;;35.65;32.33;;;20.70;87.80;;;;;;5091502;28;20093;-66
2022/05/20 01:27:01;;;;;;;33.90;30.67;;;20.70;87.90;;;;;;5091466;28;20063;-65
2022/05/20 01:29:26;;;;;;;34.85;31.17;;;20.60;88.30;;;;;;5091402;28;20067;-65
2022/05/20 01:31:52;;;;;;;35.53;31.83;;;20.50;88.60;;;;;;5091448;28;20036;-65
2022/05/20 01:34:18;;;;;;;35.53;32.17;;;20.50;88.70;;;;;;5091461;28;20026;-65
2022/05/20 01:36:44;;;;;;;32.92;29.80;;;20.50;88.80;;;;;;5093250;28;20038;-64
2022/05/20 01:39:09;;;;;;;34.47;31.17;;;20.50;88.90;;;;;;5094981;28;20063;-64
2022/05/20 01:41:55;;;;;;;34.53;31.30;;;20.50;88.80;;;;;;5094877;28;20036;-65
2022/05/20 01:44:43;;;;;;;34.10;30.67;;;20.40;88.90;;;;;;5094897;28;20042;-65
2022/05/20 01:47:36;;;;;;;32.45;29.45;;;20.40;89.10;;;;;;5094588;28;20035;-65
2022/05/20 01:50:16;;;;;;;33.05;29.92;;;20.40;89.20;;;;;;5093654;28;20052;-65
2022/05/20 01:52:53;;;;;;;32.17;29.02;;;20.50;89.00;;;;;;5094783;28;20039;-65
2022/05/20 01:55:22;;;;;;;34.35;31.25;;;20.50;88.90;;;;;;5094703;28;20139;-64
2022/05/20 01:58:18;;;;;;;32.38;29.02;;;20.50;88.70;;;;;;5094656;28;20497;-65
2022/05/20 02:00:46;;;;;;;33.05;29.85;;;20.50;88.90;;;;;;5094419;28;20123;-64
2022/05/20 02:03:19;;;;;;;32.50;29.30;;;20.40;89.00;;;;;;5094315;28;20484;-68
2022/05/20 02:06:00;;;;;;;30.35;27.50;;;20.40;89.40;;;;;;5094711;28;20020;-64
2022/05/20 02:08:41;;;;;;;31.77;28.67;;;20.50;88.70;;;;;;5094452;28;20504;-65
2022/05/20 02:11:37;;;;;;;33.25;29.95;;;20.40;88.80;;;;;;5094273;28;20024;-65
2022/05/20 02:14:09;;;;;;;36.05;32.72;;;20.40;88.90;;;;;;5094364;28;20487;-67
2022/05/20 02:16:39;;;;;;;35.95;32.65;;;20.40;88.60;;;;;;5094402;28;20032;-66
2022/05/20 02:19:22;;;;;;;34.92;31.63;;;20.30;88.80;;;;;;5094327;28;20024;-66
2022/05/20 02:21:53;;;;;;;35.72;32.38;;;20.20;89.10;;;;;;5094243;28;20032;-65
2022/05/20 02:24:22;;;;;;;35.33;31.75;;;20.10;89.30;;;;;;5082733;28;20032;-65
2022/05/20 02:27:05;;;;;;;33.97;30.60;;;20.00;89.80;;;;;;5073820;28;20024;-66
2022/05/20 02:29:45;;;;;;;34.55;31.27;;;19.90;90.00;;;;;;5074263;28;20462;-64
2022/05/20 02:32:35;;;;;;;35.10;31.70;;;19.90;90.10;;;;;;5073620;28;20396;-65
2022/05/20 02:35:01;;;;;;;33.97;30.75;;;20.00;90.10;;;;;;5073822;28;20123;-65
2022/05/20 02:37:33;;;;;;;31.67;28.70;;;20.00;90.00;;;;;;5073855;28;20120;-65
2022/05/20 02:39:59;;;;;;;32.70;29.70;;;20.20;89.80;;;;;;5073920;28;20037;-66
2022/05/20 02:42:28;;;;;;;31.48;28.35;;;20.20;89.50;;;;;;5073585;28;20040;-64
2022/05/20 02:44:55;;;;;;;33.72;30.23;;;20.30;89.30;;;;;;5073837;28;20041;-65
2022/05/20 02:47:21;;;;;;;31.85;28.73;;;20.30;89.30;;;;;;5073388;28;20056;-65
2022/05/20 02:49:47;;;;;;;27.95;25.42;;;20.30;89.30;;;;;;5073684;28;20041;-65
2022/05/20 02:52:13;;;;;;;31.48;28.48;;;20.30;89.20;;;;;;5073247;28;20039;-66
2022/05/20 02:54:39;;;;;;;30.83;27.90;;;20.30;89.30;;;;;;5073777;28;20020;-69
2022/05/20 02:57:05;;;;;;;29.77;26.83;;;20.30;89.30;;;;;;5073340;28;20035;-65
2022/05/20 03:04:59;;;;;;;30.08;27.10;;;20.30;89.20;;;;;;5073716;28;20166;-64
2022/05/20 03:07:25;;;;;;;33.03;29.85;;;20.30;89.10;;;;;;5073281;28;20062;-64
2022/05/20 03:09:52;;;;;;;29.98;27.08;;;20.20;89.00;;;;;;5073304;28;20036;-64
2022/05/20 03:12:18;;;;;;;30.00;27.17;;;20.20;88.90;;;;;;5073283;28;20032;-64
2022/05/20 03:14:44;;;;;;;38.70;23.25;;;20.20;89.10;;;;;;5073146;28;20033;-64
2022/05/20 03:17:09;;;;;;;17.42;15.88;;;20.20;87.70;;;;;;5073023;28;20048;-63
2022/05/20 03:19:36;;;;;;;17.73;16.13;;;20.10;87.70;;;;;;5072991;28;20029;-63
2022/05/20 03:22:04;;;;;;;18.75;16.83;;;20.10;88.60;;;;;;5073208;28;20029;-63
2022/05/20 03:24:30;;;;;;;18.02;16.35;;;19.90;88.90;;;;;;5072996;28;20059;-63
2022/05/20 03:26:56;;;;;;;20.30;17.30;;;20.00;88.90;;;;;;5073145;28;20035;-63
2022/05/20 03:29:21;;;;;;;18.17;16.27;;;20.00;88.70;;;;;;5087225;28;20145;-64
2022/05/20 03:31:47;;;;;;;18.60;16.90;;;20.10;88.40;;;;;;5093060;28;20508;-63
2022/05/20 03:34:13;;;;;;;18.20;16.50;;;20.20;88.30;;;;;;5074541;28;20032;-63
2022/05/20 03:36:42;;;;;;;20.65;18.73;;;20.10;88.60;;;;;;5093146;28;20035;-64
2022/05/20 03:39:09;;;;;;;17.50;15.80;;;20.10;88.80;;;;;;5092950;28;20032;-64
2022/05/20 03:41:37;;;;;;;19.13;17.17;;;20.00;89.00;;;;;;5092886;28;20122;-63
2022/05/20 03:44:04;;;;;;;19.52;17.70;;;19.90;89.20;;;;;;5081534;28;20028;-63
2022/05/20 03:46:31;;;;;;;20.23;18.23;;;20.00;89.30;;;;;;5091858;28;20047;-63
2022/05/20 03:48:58;;;;;;;21.25;19.13;;;19.90;89.20;;;;;;5092231;28;20036;-63
2022/05/20 03:51:23;;;;;;;19.55;17.63;;;19.90;89.70;;;;;;5077138;28;20020;-63
2022/05/20 03:53:49;;;;;;;19.52;17.73;;;19.90;89.60;;;;;;5074678;28;20405;-63
2022/05/20 03:56:14;;;;;;;22.02;19.90;;;19.90;89.40;;;;;;5092845;28;20096;-64
2022/05/20 03:58:40;;;;;;;20.42;18.50;;;19.90;89.60;;;;;;5091444;28;20039;-63
2022/05/20 04:03:54;;;;;;;21.08;19.08;;;20.00;89.60;;;;;;5092181;28;20078;-64
2022/05/20 04:06:19;;;;;;;22.08;19.85;;;19.90;89.60;;;;;;5092236;28;20495;-62
2022/05/20 04:08:45;;;;;;;24.08;21.80;;;20.00;89.20;;;;;;5092392;28;20115;-63
2022/05/20 04:11:13;;;;;;;22.23;20.30;;;20.00;89.40;;;;;;5092804;28;20024;-63
2022/05/20 04:13:41;;;;;;;22.92;20.73;;;19.90;89.40;;;;;;5092091;28;20110;-63
2022/05/20 04:16:11;;;;;;;23.92;21.60;;;19.90;89.80;;;;;;5092541;28;20028;-63
2022/05/20 04:18:38;;;;;;;23.55;21.33;;;19.90;89.50;;;;;;5092275;28;20035;-63
2022/05/20 04:21:04;;;;;;;23.80;21.58;;;19.90;89.50;;;;;;5092338;28;20024;-64
2022/05/20 04:23:30;;;;;;;21.55;19.70;;;19.90;89.50;;;;;;5091282;28;20412;-63
2022/05/20 04:25:56;;;;;;;24.10;21.90;;;19.90;89.70;;;;;;5091899;28;20081;-65
2022/05/20 04:28:21;;;;;;;22.65;20.55;;;19.90;89.70;;;;;;5091793;28;20044;-67
2022/05/20 04:30:47;;;;;;;23.95;21.65;;;19.90;89.40;;;;;;5092383;28;20038;-67
2022/05/20 04:33:13;;;;;;;24.88;22.45;;;19.90;89.70;;;;;;5091682;28;20104;-67
2022/05/20 04:35:39;;;;;;;23.73;21.45;;;19.90;89.70;;;;;;5092183;28;20044;-65
2022/05/20 04:38:05;;;;;;;25.98;23.58;;;19.90;89.70;;;;;;5092236;28;20493;-67
2022/05/20 04:40:30;;;;;;;25.58;23.08;;;19.90;89.60;;;;;;5091290;28;20119;-64
2022/05/20 04:46:56;;;;;;;26.98;24.33;;;19.90;89.40;;;;;;5091576;28;20035;-70
2022/05/20 04:48:32;;;;;;;26.75;24.00;;;19.90;89.50;;;;;;5091136;28;20140;-69
2022/05/20 04:50:58;;;;;;;27.05;24.50;;;19.80;89.70;;;;;;5088709;28;20544;-70
2022/05/20 04:56:07;;;;;;;25.38;23.10;;;19.80;89.90;;;;;;5091822;28;20106;-69
2022/05/20 04:58:33;;;;;;;26.45;23.83;;;19.70;90.00;;;;;;5090955;28;20028;-69
2022/05/20 05:00:58;;;;;;;28.70;25.95;;;19.70;90.00;;;;;;5088435;28;20489;-70
2022/05/20 05:03:24;;;;;;;28.23;25.45;;;19.70;90.10;;;;;;5091613;28;20477;-70
2022/05/20 05:05:50;;;;;;;28.63;25.85;;;19.70;90.00;;;;;;5090835;28;20040;-69
2022/05/20 05:08:16;;;;;;;28.83;26.05;;;19.80;90.10;;;;;;5090893;28;20115;-69
2022/05/20 05:10:43;;;;;;;31.70;28.60;;;19.80;90.00;;;;;;5091252;28;20443;-69
2022/05/20 05:13:09;;;;;;;31.00;27.92;;;19.80;90.00;;;;;;5095042;28;20024;-67
2022/05/20 05:15:41;;;;;;;29.33;26.50;;;19.90;90.10;;;;;;5091515;28;20024;-68
2022/05/20 05:18:12;;;;;;;31.52;28.45;;;19.80;90.10;;;;;;5094164;28;20028;-71
2022/05/20 05:20:44;;;;;;;31.40;28.50;;;19.90;90.10;;;;;;5092976;28;20469;-67
2022/05/20 05:23:10;;;;;;;31.35;28.48;;;19.70;90.10;;;;;;5095142;28;20012;-71
2022/05/20 05:25:36;;;;;;;34.58;31.27;;;19.90;90.20;;;;;;5094156;28;20016;-69
2022/05/20 05:28:03;;;;;;;33.40;30.20;;;19.80;90.20;;;;;;5094633;28;20028;-70
2022/05/20 05:30:30;;;;;;;32.85;29.65;;;19.70;90.30;;;;;;5093976;28;20032;-68
2022/05/20 05:32:55;;;;;;;36.05;32.80;;;19.80;90.30;;;;;;5094200;28;20055;-68
2022/05/20 05:35:24;;;;;;;30.40;27.70;;;19.80;90.40;;;;;;5094716;28;20477;-67
2022/05/20 05:37:50;;;;;;;33.42;30.13;;;19.90;90.50;;;;;;5094058;28;20039;-68
2022/05/20 05:40:18;;;;;;;33.20;30.00;;;20.00;90.60;;;;;;5094149;28;20381;-67
2022/05/20 05:42:44;;;;;;;31.92;28.80;;;20.10;90.60;;;;;;5093810;28;20054;-69
2022/05/20 05:45:12;;;;;;;50.97;29.15;;;20.20;90.30;;;;;;5077007;28;20067;-69
2022/05/20 05:47:38;;;;;;;33.88;30.58;;;20.20;90.40;;;;;;5096401;28;20024;-69
2022/05/20 05:50:05;;;;;;;40.10;36.10;;;20.30;90.30;;;;;;5093111;28;20032;-66
2022/05/20 05:52:30;;;;;;;41.47;37.35;;;20.40;90.40;;;;;;5086894;28;20119;-66
2022/05/20 05:54:56;;;;;;;38.95;35.15;;;20.40;90.30;;;;;;5072116;28;20108;-68
2022/05/20 05:57:21;;;;;;;40.97;36.80;;;20.40;90.10;;;;;;5088414;28;20107;-65
2022/05/20 05:59:47;;;;;;;39.85;35.80;;;20.50;90.30;;;;;;5092258;28;20119;-68
2022/05/20 06:02:12;;;;;;;39.10;35.40;;;20.60;90.00;;;;;;5090257;28;20555;-65
2022/05/20 06:04:38;;;;;;;38.65;34.70;;;20.60;90.30;;;;;;5090214;28;20598;-67
2022/05/20 06:07:05;;;;;;;37.80;34.38;;;20.70;90.20;;;;;;5074989;28;20118;-66
2022/05/20 06:09:31;;;;;;;37.95;33.97;;;20.80;89.70;;;;;;5091305;28;20031;-68
2022/05/20 06:11:57;;;;;;;37.20;33.50;;;20.80;90.10;;;;;;5092716;28;20057;-65
2022/05/20 06:14:22;;;;;;;38.38;34.58;;;20.90;89.30;;;;;;5091981;28;20067;-65
2022/05/20 06:16:48;;;;;;;35.55;32.08;;;20.90;89.00;;;;;;5091903;28;20108;-67
2022/05/20 06:19:14;;;;;;;39.22;35.28;;;21.00;88.70;;;;;;5093143;28;20036;-67
2022/05/20 06:21:40;;;;;;;38.10;34.15;;;21.00;88.60;;;;;;5074697;28;20032;-69
2022/05/20 06:24:08;;;;;;;36.25;32.65;;;21.10;89.20;;;;;;5093424;28;20019;-66
2022/05/20 06:26:37;;;;;;;36.28;32.38;;;21.10;88.90;;;;;;5090454;28;20020;-68
2022/05/20 06:29:04;;;;;;;36.22;32.47;;;21.10;89.20;;;;;;5075530;28;20036;-66
2022/05/20 06:31:30;;;;;;;36.45;32.83;;;21.10;89.10;;;;;;5093993;28;20103;-64
2022/05/20 06:33:57;;;;;;;35.83;32.08;;;21.20;88.10;;;;;;5075828;28;20117;-63
2022/05/20 06:41:52;;;;;;;36.42;31.60;;;21.10;87.50;;;;;;5091928;28;20165;-68
2022/05/20 06:44:17;;;;;;;35.17;31.48;;;21.00;87.90;;;;;;5094064;28;20476;-69
2022/05/20 06:46:43;;;;;;;34.60;31.05;;;21.00;88.00;;;;;;5086885;28;20036;-69
2022/05/20 06:49:08;;;;;;;36.08;32.25;;;20.90;88.00;;;;;;5092388;28;20036;-67
2022/05/20 06:51:36;;;;;;;34.97;31.48;;;20.90;88.50;;;;;;5092198;28;20028;-70
2022/05/20 06:54:05;;;;;;;35.15;31.52;;;20.90;88.70;;;;;;5082749;28;20035;-71
2022/05/20 06:56:31;;;;;;;34.15;30.88;;;20.90;88.90;;;;;;5090722;28;20085;-70
2022/05/20 06:58:59;;;;;;;35.78;32.17;;;20.90;89.20;;;;;;5082044;28;20111;-73
2022/05/20 07:01:24;;;;;;;37.08;33.38;;;20.90;89.00;;;;;;5072784;28;20036;-74
2022/05/20 07:03:51;;;;;;;34.03;30.42;;;21.00;89.20;;;;;;5092555;28;20024;-70
2022/05/20 07:06:17;;;;;;;37.92;33.95;;;21.10;89.50;;;;;;5093043;28;20034;-71
2022/05/20 07:08:53;;;;;;;33.40;28.85;;;21.10;89.20;;;;;;5091507;28;20473;-71
2022/05/20 07:11:21;;;;;;;39.63;35.33;;;21.10;89.10;;;;;;5093421;28;20047;-74
2022/05/20 07:13:49;;;;;;;38.63;34.70;;;21.20;89.30;;;;;;5093108;28;20028;-72
2022/05/20 07:16:15;;;;;;;35.42;31.80;;;21.20;89.20;;;;;;5093340;28;20030;-70
2022/05/20 07:18:40;;;;;;;35.47;31.75;;;21.30;89.20;;;;;;5092766;28;20032;-73
2022/05/20 07:21:06;;;;;;;41.28;37.00;;;21.30;89.40;;;;;;5093900;28;20076;-70
2022/05/20 07:23:32;;;;;;;40.58;36.53;;;21.30;89.60;;;;;;5092997;28;20020;-74
2022/05/20 07:26:00;;;;;;;39.35;35.15;;;21.30;89.30;;;;;;5093431;28;20111;-74
2022/05/20 07:28:26;;;;;;;39.75;35.80;;;21.30;88.60;;;;;;5093316;28;20035;-74
2022/05/20 07:30:52;;;;;;;37.85;34.03;;;21.30;88.60;;;;;;5092936;28;20089;-72
2022/05/20 07:33:17;;;;;;;40.40;36.30;;;21.40;88.60;;;;;;5092650;28;20063;-73
2022/05/20 07:35:43;;;;;;;39.20;35.08;;;21.40;88.80;;;;;;5092987;28;20111;-72
2022/05/20 07:38:09;;;;;;;40.45;36.65;;;21.40;88.20;;;;;;5091132;28;20040;-71
2022/05/20 07:40:35;;;;;;;40.60;36.20;;;20.60;90.70;;;;;;5092542;28;20035;-73
2022/05/20 07:43:01;;;;;;;40.80;35.63;;;19.90;91.60;;;;;;5093202;28;20477;-70
2022/05/20 07:45:26;;;;;;;38.58;34.72;;;19.50;92.50;;;;;;5092960;28;20039;-73
2022/05/20 07:47:52;;;;;;;35.38;31.70;;;19.70;92.70;;;;;;5093128;28;20064;-69
2022/05/20 07:50:18;;;;;;;38.00;33.88;;;19.90;92.60;;;;;;5092866;28;20043;-73
2022/05/20 07:55:37;;;;;;;40.42;36.05;;;19.50;93.00;;;;;;5096357;28;20061;-67
2022/05/20 07:58:09;;;;;;;39.42;35.45;;;19.40;93.20;;;;;;5087059;28;20028;-67
2022/05/20 08:00:35;;;;;;;41.37;37.10;;;19.40;93.60;;;;;;5108949;28;20030;-68
2022/05/20 08:03:01;;;;;;;39.20;35.05;;;19.50;94.00;;;;;;5103323;28;20099;-65
2022/05/20 08:05:29;;;;;;;37.55;33.67;;;19.60;93.30;;;;;;5100949;28;20107;-66
2022/05/20 08:08:00;;;;;;;36.55;32.67;;;19.60;93.10;;;;;;5105640;28;20066;-65
2022/05/20 08:10:28;;;;;;;37.23;33.13;;;19.70;93.00;;;;;;5091704;28;20485;-68
2022/05/20 08:12:54;;;;;;;35.60;31.23;;;19.80;92.40;;;;;;5091936;28;20110;-73
2022/05/20 08:15:20;;;;;;;35.35;31.63;;;19.80;92.10;;;;;;5092350;28;20028;-66
2022/05/20 08:17:45;;;;;;;34.25;30.60;;;19.80;92.50;;;;;;5092334;28;20035;-66
2022/05/20 08:20:22;;;;;;;34.95;30.95;;;19.90;92.20;;;;;;5092287;28;20073;-66
2022/05/20 08:22:48;;;;;;;35.10;31.58;;;19.90;92.40;;;;;;5092098;28;20024;-65
2022/05/20 08:25:14;;;;;;;33.22;29.92;;;19.90;92.00;;;;;;5091967;28;20032;-66
2022/05/20 08:27:40;;;;;;;32.10;27.42;;;20.00;92.30;;;;;;5091402;28;20465;-66
2022/05/20 08:30:10;;;;;;;32.08;28.70;;;20.20;92.20;;;;;;5090993;28;20047;-67
2022/05/20 08:32:35;;;;;;;27.25;22.70;;;20.40;91.00;;;;;;5091084;28;20024;-68
2022/05/20 08:35:03;;;;;;;29.88;26.65;;;20.40;91.30;;;;;;5091497;28;20032;-66
2022/05/20 08:37:29;;;;;;;28.27;25.25;;;20.40;90.70;;;;;;5091384;28;20023;-67
2022/05/20 08:39:54;;;;;;;30.20;25.05;;;20.20;90.50;;;;;;5091722;28;20036;-68
2022/05/20 08:42:23;;;;;;;26.80;24.13;;;20.10;91.10;;;;;;5092191;28;20035;-66
2022/05/20 08:44:49;;;;;;;29.48;26.02;;;20.10;90.70;;;;;;5092184;28;20127;-67
2022/05/20 08:47:41;;;;;;;28.40;25.40;;;20.20;91.30;;;;;;5077777;28;20469;-70
2022/05/20 08:50:13;;;;;;;27.25;24.40;;;20.20;91.00;;;;;;5095042;28;20036;-71
2022/05/20 08:52:39;;;;;;;26.50;23.25;;;20.20;91.40;;;;;;5095630;28;20052;-72
2022/05/20 08:55:06;;;;;;;26.92;24.02;;;20.40;91.00;;;;;;5095608;28;20107;-69
2022/05/20 08:57:33;;;;;;;27.65;23.38;;;20.40;90.80;;;;;;5095636;28;20056;-70
2022/05/20 09:00:00;;;;;;;26.13;22.80;;;20.40;90.60;;;;;;5095356;28;20040;-70
2022/05/20 09:02:26;;;;;;;24.38;21.88;;;20.40;90.50;;;;;;5095150;28;20035;-69
2022/05/20 09:04:51;;;;;;;22.30;20.20;;;20.50;89.70;;;;;;5094742;28;20464;-66
2022/05/20 09:07:19;;;;;;;24.88;21.98;;;20.60;90.10;;;;;;5095641;28;20024;-67
2022/05/20 09:09:56;;;;;;;25.63;22.83;;;20.60;89.50;;;;;;5095340;28;20039;-72
2022/05/20 09:12:36;;;;;;;28.52;25.52;;;20.50;90.20;;;;;;5094976;28;20449;-69
2022/05/20 09:18:19;;;;;;;28.23;24.67;;;20.60;90.40;;;;;;5089161;28;20089;-70
2022/05/20 09:20:51;;;;;;;27.80;24.88;;;20.50;90.20;;;;;;5094492;28;20400;-72
2022/05/20 09:23:22;;;;;;;28.17;25.05;;;20.50;90.70;;;;;;5094811;28;20099;-72
2022/05/20 09:26:09;;;;;;;27.75;24.80;;;20.50;90.80;;;;;;5095121;28;20032;-66
2022/05/20 09:28:47;;;;;;;27.17;24.50;;;20.50;90.60;;;;;;5095100;28;20035;-69
2022/05/20 09:31:13;;;;;;;29.75;26.65;;;20.70;90.80;;;;;;5093986;28;20028;-69
2022/05/20 09:33:38;;;;;;;29.85;26.65;;;20.70;90.80;;;;;;5091391;28;20107;-70
2022/05/20 09:36:05;;;;;;;30.85;27.67;;;20.70;91.30;;;;;;5073083;28;20431;-71
2022/05/20 09:38:36;;;;;;;31.50;28.17;;;20.70;91.20;;;;;;5091911;28;20036;-71
2022/05/20 09:41:22;;;;;;;32.92;29.45;;;20.50;91.70;;;;;;5091870;28;20060;-70
2022/05/20 09:43:58;;;;;;;34.63;29.95;;;20.60;91.80;;;;;;5091656;28;20032;-65
2022/05/20 09:46:44;;;;;;;34.08;29.33;;;20.50;91.90;;;;;;5094413;28;20431;-65
2022/05/20 09:49:16;;;;;;;34.35;30.75;;;20.20;92.40;;;;;;5093573;28;20090;-65
2022/05/20 09:51:48;;;;;;;;;;;20.20;92.80;;;;;;5095154;28;20038;-66
2022/05/20 09:54:35;;;;;;;35.58;31.77;;;20.00;92.80;;;;;;5094816;28;20003;-70
2022/05/20 09:57:13;;;;;;;35.40;32.00;;;20.00;93.80;;;;;;5093662;28;20040;-67
2022/05/20 09:59:50;;;;;;;34.45;30.77;;;19.90;93.90;;;;;;5094203;28;20040;-65
2022/05/20 10:02:22;;;;;;;32.85;29.25;;;20.00;94.00;;;;;;5094178;28;20473;-65
2022/05/20 10:05:07;;;;;;;34.15;30.33;;;20.10;94.30;;;;;;5094677;28;20028;-70
2022/05/20 10:07:56;;;;;;;35.92;30.70;;;20.30;93.90;;;;;;5094571;28;20096;-70
2022/05/20 10:10:38;;;;;;;34.22;30.65;;;20.40;93.80;;;;;;5094375;28;20048;-66
2022/05/20 10:13:07;;;;;;;33.47;30.02;;;20.40;93.80;;;;;;5093966;28;20156;-66
2022/05/20 10:15:42;;;;;;;33.45;29.85;;;20.20;94.10;;;;;;5094090;28;20028;-70
2022/05/20 10:18:30;;;;;;;34.70;31.00;;;20.10;94.60;;;;;;5102534;28;20426;-65
2022/05/20 10:21:42;;;;;;;34.53;30.75;;;20.10;95.20;;;;;;5095653;28;20465;-67
2022/05/20 10:24:45;;;;;;;33.15;29.77;;;20.10;95.40;;;;;;5094279;28;20040;-68
2022/05/20 10:27:16;;;;;;;33.80;30.30;;;20.00;95.50;;;;;;5075913;28;20448;-65
2022/05/20 10:32:49;;;;;;;33.20;29.98;;;20.10;95.70;;;;;;5094205;28;20071;-70
2022/05/20 10:35:22;;;;;;;28.83;25.83;;;20.00;95.80;;;;;;5094168;28;20148;-66
2022/05/20 10:37:59;;;;;;;28.35;25.55;;;20.30;95.10;;;;;;5093462;28;20051;-70
2022/05/20 10:40:46;;;;;;;28.02;25.13;;;20.70;94.40;;;;;;5094260;28;20094;-68
2022/05/20 10:48:34;;;;;;;28.23;25.35;;;20.90;93.80;;;;;;5093988;28;20032;-71
2022/05/20 10:49:33;;;;;;;25.63;23.33;;;21.20;93.10;;;;;;5093825;28;20401;-71
2022/05/20 10:52:07;;;;;;;20.58;17.77;;;21.30;92.80;;;;;;5093775;28;20024;-70
2022/05/20 10:55:00;;;;;;;20.73;18.63;;;21.50;92.30;;;;;;5093866;28;20032;-70
2022/05/20 10:57:28;;;;;;;;;;;21.60;92.00;;;;;;5094210;28;20369;-71
2022/05/20 11:00:03;;;;;;;23.80;21.25;;;21.70;91.50;;;;;;5093662;28;19920;-68
2022/05/20 11:03:19;;;;;;;18.55;15.73;;;21.70;93.00;;;;;;5088267;28;20051;-70
2022/05/20 11:06:02;;;;;;;21.13;18.98;;;21.70;93.20;;;;;;5093789;28;20089;-67
2022/05/20 11:08:30;;;;;;;15.68;14.07;;;21.80;93.40;;;;;;5072169;28;20474;-66
2022/05/20 11:11:28;;;;;;;16.52;13.57;;;21.80;92.20;;;;;;5078708;28;20450;-71
2022/05/20 11:14:22;;;;;;;15.30;13.63;;;21.90;91.80;;;;;;5092695;28;20036;-71
2022/05/20 11:17:30;;;;;;;15.90;14.32;;;22.00;91.60;;;;;;5092835;28;20480;-71
2022/05/20 11:20:04;;;;;;;19.50;17.40;;;22.00;91.40;;;;;;5078592;28;20468;-70
2022/05/20 11:23:12;;;;;;;19.95;17.80;;;22.10;92.20;;;;;;5093533;28;20028;-70
2022/05/20 11:26:17;;;;;;;18.83;14.68;;;22.10;91.80;;;;;;5092186;28;20039;-69
2022/05/20 11:29:03;;;;;;;22.50;20.13;;;22.20;92.00;;;;;;5007617;28;20081;-70
2022/05/20 11:31:49;;;;;;;30.30;26.85;;;22.10;93.70;;;;;;5086355;28;20570;-71
2022/05/20 11:34:41;;;;;;;26.50;23.65;;;22.10;94.30;;;;;;5083944;28;20035;-71
2022/05/20 11:37:21;;;;;;;35.00;29.60;;;22.10;94.70;;;;;;5092854;28;20473;-71
2022/05/20 11:40:18;;;;;;;31.38;28.23;;;22.10;95.60;;;;;;5083243;28;20453;-70
2022/05/20 11:43:06;;;;;;;25.15;22.65;;;22.20;95.20;;;;;;5091482;28;20075;-71
2022/05/20 11:45:52;;;;;;;21.00;18.80;;;22.20;93.90;;;;;;5090286;28;20496;-70
2022/05/20 11:49:06;;;;;;;17.27;15.30;;;22.30;93.20;;;;;;5092254;28;20493;-70
2022/05/20 11:52:04;;;;;;;18.88;16.83;;;22.30;92.80;;;;;;5061455;28;20036;-70
2022/05/20 11:54:49;;;;;;;23.73;21.25;;;22.30;92.80;;;;;;5086528;28;20070;-70
2022/05/20 11:57:22;;;;;;;22.77;20.25;;;22.30;92.90;;;;;;5100143;28;20038;-69
2022/05/20 11:59:57;;;;;;;28.48;25.60;;;22.30;93.10;;;;;;5092389;28;20043;-71
2022/05/20 12:02:24;;;;;;;34.28;30.85;;;22.30;94.10;;;;;;5089063;28;20036;-70
2022/05/20 12:04:50;;;;;;;30.35;27.25;;;22.40;94.70;;;;;;5091613;28;20085;-68
2022/05/20 12:07:21;;;;;;;32.33;29.13;;;22.40;94.70;;;;;;5089891;28;20496;-70
2022/05/20 12:09:49;;;;;;;33.85;30.75;;;22.40;95.30;;;;;;5089055;28;20388;-70
2022/05/20 12:12:27;;;;;;;36.70;33.20;;;22.40;95.70;;;;;;5087920;28;20028;-71
2022/05/20 12:15:01;;;;;;;38.58;34.83;;;22.40;96.20;;;;;;5083070;28;20032;-71
2022/05/20 12:17:38;;;;;;;39.13;35.20;;;22.50;96.50;;;;;;5075106;28;20035;-71
2022/05/20 12:26:05;;;;;;;36.33;32.58;;;22.50;96.30;;;;;;5092438;28;20071;-71
2022/05/20 12:28:34;;;;;;;35.53;30.95;;;22.50;96.40;;;;;;5092012;28;20381;-71
2022/05/20 12:31:12;;;;;;;23.95;21.55;;;22.60;96.50;;;;;;5071581;28;20512;-72
2022/05/20 12:33:59;;;;;;;20.92;18.85;;;22.50;95.40;;;;;;5071485;28;20020;-71
2022/05/20 12:36:30;;;;;;;33.78;29.05;;;22.60;94.20;;;;;;5071101;28;20032;-70
2022/05/20 12:39:42;;;;;;;35.47;31.30;;;22.50;95.30;;;;;;5037654;28;1030404;-70
2022/05/20 12:42:24;;;;;;;32.72;29.63;;;22.60;95.10;;;;;;5092268;28;20063;-70
2022/05/20 12:44:50;;;;;;;32.58;29.48;;;22.60;95.30;;;;;;5093115;28;20035;-71
2022/05/20 12:47:31;;;;;;;33.90;30.60;;;22.60;95.70;;;;;;5093871;28;20024;-71
2022/05/20 12:50:08;;;;;;;30.30;27.30;;;22.60;95.70;;;;;;5094299;28;20047;-70
2022/05/20 12:52:45;;;;;;;31.10;28.23;;;22.60;96.50;;;;;;5094649;28;20024;-71
2022/05/20 12:55:15;;;;;;;30.52;27.67;;;22.60;96.40;;;;;;5094574;28;20024;-70
2022/05/20 12:58:08;;;;;;;32.00;28.80;;;22.50;96.60;;;;;;5092706;28;20024;-71
2022/05/20 13:00:41;;;;;;;33.65;30.17;;;22.50;95.80;;;;;;5089436;28;20075;-69
2022/05/20 13:03:15;;;;;;;35.05;31.58;;;22.50;96.90;;;;;;5092990;28;20061;-70
2022/05/20 13:05:50;;;;;;;34.35;31.02;;;22.50;97.30;;;;;;5092363;28;20024;-70
2022/05/20 13:08:19;;;;;;;36.95;33.45;;;22.50;97.20;;;;;;5092325;28;20384;-69
2022/05/20 13:10:45;;;;;;;35.90;32.40;;;22.50;97.40;;;;;;5092420;28;20479;-69
2022/05/20 13:13:28;;;;;;;36.58;32.95;;;22.50;97.70;;;;;;5092613;28;20504;-70
2022/05/20 13:15:57;;;;;;;35.85;32.33;;;22.50;97.70;;;;;;5092545;28;20382;-71
2022/05/20 13:18:26;;;;;;;34.03;30.83;;;22.50;97.80;;;;;;5092647;28;20047;-70
2022/05/20 13:20:58;;;;;;;36.42;33.03;;;22.50;98.10;;;;;;5092488;28;20028;-69
2022/05/20 13:23:34;;;;;;;35.65;32.35;;;22.60;98.10;;;;;;5073982;28;20035;-70
2022/05/20 13:26:00;;;;;;;40.78;36.78;;;22.50;98.00;;;;;;5092093;28;20473;-71
2022/05/20 13:28:34;;;;;;;39.80;36.00;;;22.50;97.50;;;;;;5092405;28;20020;-70
2022/05/20 13:31:06;;;;;;;32.63;29.73;;;22.60;97.50;;;;;;5092291;28;20059;-70